createdAt,value
2018-02-04T00:00:38.885Z,20.63
2018-02-04T00:03:06.458Z,18.80
2018-02-04T00:05:34.082Z,15.83
2018-02-04T00:08:01.719Z,16.83
2018-02-04T00:10:29.298Z,18.07
2018-02-04T00:12:57.007Z,17.97
2018-02-04T00:15:24.644Z,14.53
2018-02-04T00:17:52.220Z,12.40
2018-02-04T00:20:19.850Z,9.30
2018-02-04T00:22:47.478Z,6.97
2018-02-04T00:25:15.076Z,7.07
2018-02-04T00:27:42.701Z,6.27
2018-02-04T00:30:10.314Z,5.50
2018-02-04T00:32:37.884Z,5.97
2018-02-04T00:35:05.450Z,4.90
2018-02-04T00:37:33.025Z,5.47
2018-02-04T00:40:00.572Z,5.53
2018-02-04T00:42:28.147Z,4.70
2018-02-04T00:44:55.717Z,5.60
2018-02-04T00:47:23.330Z,5.60
2018-02-04T00:49:50.975Z,5.20
2018-02-04T00:52:18.595Z,5.23
2018-02-04T00:54:47.026Z,5.37
2018-02-04T00:57:14.566Z,6.50
2018-02-04T00:59:42.148Z,4.80
2018-02-04T01:02:09.767Z,5.53
2018-02-04T01:04:37.386Z,5.70
2018-02-04T01:07:05.059Z,5.00
2018-02-04T01:09:32.626Z,5.13
2018-02-04T01:12:00.193Z,4.67
2018-02-04T01:14:27.749Z,5.07
2018-02-04T01:16:55.332Z,5.33
2018-02-04T01:19:22.964Z,4.43
2018-02-04T01:21:50.676Z,4.73
2018-02-04T01:24:18.251Z,5.53
2018-02-04T01:26:45.818Z,5.37
2018-02-04T01:29:13.414Z,4.43
2018-02-04T01:31:41.039Z,3.77
2018-02-04T01:34:08.612Z,3.60
2018-02-04T01:36:36.246Z,5.07
2018-02-04T01:39:03.999Z,4.60
2018-02-04T01:41:31.622Z,4.83
2018-02-04T01:43:59.202Z,6.07
2018-02-04T01:46:26.848Z,6.23
2018-02-04T01:48:54.414Z,5.40
2018-02-04T01:51:22.053Z,5.43
2018-02-04T01:53:49.601Z,6.53
2018-02-04T01:56:17.202Z,4.97
2018-02-04T01:58:44.839Z,4.17
2018-02-04T02:01:12.425Z,4.50
2018-02-04T02:03:39.999Z,5.50
2018-02-04T02:06:07.561Z,5.40
2018-02-04T02:08:35.130Z,5.33
2018-02-04T02:11:02.755Z,3.97
2018-02-04T02:13:30.361Z,4.07
2018-02-04T02:15:57.970Z,3.17
2018-02-04T02:18:25.522Z,2.77
2018-02-04T02:20:53.162Z,4.60
2018-02-04T02:23:20.725Z,3.50
2018-02-04T02:25:48.290Z,3.53
2018-02-04T02:28:15.846Z,2.20
2018-02-04T02:30:43.515Z,2.40
2018-02-04T02:33:11.124Z,3.23
2018-02-04T02:35:38.681Z,3.10
2018-02-04T02:38:06.303Z,2.70
2018-02-04T02:40:33.861Z,3.97
2018-02-04T02:43:01.425Z,3.70
2018-02-04T02:45:28.980Z,3.10
2018-02-04T02:47:56.590Z,2.87
2018-02-04T02:50:24.206Z,4.07
2018-02-04T02:52:52.490Z,3.53
2018-02-04T02:55:20.053Z,4.20
2018-02-04T02:57:47.735Z,3.77
2018-02-04T03:00:15.321Z,3.70
2018-02-04T03:02:42.879Z,4.70
2018-02-04T03:05:10.487Z,5.03
2018-02-04T03:07:38.098Z,4.03
2018-02-04T03:10:05.657Z,6.07
2018-02-04T03:12:33.222Z,3.30
2018-02-04T03:15:00.774Z,3.80
2018-02-04T03:17:28.344Z,4.90
2018-02-04T03:19:55.897Z,4.53
2018-02-04T03:22:23.562Z,3.17
2018-02-04T03:24:51.161Z,6.10
2018-02-04T03:27:18.726Z,3.80
2018-02-04T03:29:46.293Z,5.40
2018-02-04T03:32:13.850Z,3.90
2018-02-04T03:34:41.426Z,20.60
2018-02-04T03:37:08.988Z,9.00
2018-02-04T03:39:36.602Z,5.37
2018-02-04T03:42:04.162Z,3.80
2018-02-04T03:44:31.700Z,4.23
2018-02-04T03:46:59.281Z,2.80
2018-02-04T03:49:26.877Z,4.70
2018-02-04T03:51:54.446Z,4.57
2018-02-04T03:54:22.010Z,5.67
2018-02-04T03:56:49.609Z,4.20
2018-02-04T03:59:17.167Z,4.87
2018-02-04T04:01:44.728Z,5.30
2018-02-04T04:04:12.308Z,4.90
2018-02-04T04:06:39.876Z,4.53
2018-02-04T04:09:07.446Z,4.80
2018-02-04T04:11:35.090Z,20.30
2018-02-04T04:14:02.716Z,8.60
2018-02-04T04:16:30.338Z,15.33
2018-02-04T04:18:57.918Z,19.97
2018-02-04T04:21:25.492Z,7.90
2018-02-04T04:23:53.110Z,7.63
2018-02-04T04:26:20.743Z,7.50
2018-02-04T04:28:48.308Z,8.53
2018-02-04T04:31:15.918Z,9.70
2018-02-04T04:33:43.560Z,7.93
2018-02-04T04:36:11.185Z,5.60
2018-02-04T04:38:38.758Z,6.50
2018-02-04T04:41:06.326Z,5.97
2018-02-04T04:43:33.897Z,15.50
2018-02-04T04:46:01.449Z,6.97
2018-02-04T04:48:29.066Z,3.60
2018-02-04T04:50:56.634Z,9.27
2018-02-04T04:53:24.200Z,17.37
2018-02-04T04:55:51.883Z,9.63
2018-02-04T04:58:19.446Z,7.30
2018-02-04T05:00:47.020Z,5.30
2018-02-04T05:03:14.683Z,4.90
2018-02-04T05:05:42.269Z,4.80
2018-02-04T05:08:09.827Z,4.70
2018-02-04T05:10:37.391Z,6.00
2018-02-04T05:13:04.976Z,4.50
2018-02-04T05:15:32.598Z,4.70
2018-02-04T05:18:00.241Z,4.90
2018-02-04T05:20:27.861Z,5.00
2018-02-04T05:22:55.466Z,5.07
2018-02-04T05:25:23.083Z,4.43
2018-02-04T05:27:50.641Z,5.87
2018-02-04T05:30:18.202Z,5.70
2018-02-04T05:32:45.813Z,3.83
2018-02-04T05:35:13.438Z,6.70
2018-02-04T05:37:40.991Z,6.60
2018-02-04T05:40:08.606Z,5.77
2018-02-04T05:42:36.165Z,5.87
2018-02-04T05:45:03.706Z,6.83
2018-02-04T05:47:31.303Z,7.63
2018-02-04T05:49:58.973Z,7.90
2018-02-04T05:52:26.528Z,10.17
2018-02-04T05:54:54.138Z,10.23
2018-02-04T05:57:21.853Z,8.63
2018-02-04T05:59:49.457Z,10.87
2018-02-04T06:02:17.005Z,11.20
2018-02-04T06:04:44.570Z,8.30
2018-02-04T06:07:12.136Z,6.30
2018-02-04T06:09:39.739Z,7.90
2018-02-04T06:12:07.355Z,8.83
2018-02-04T06:14:34.955Z,8.80
2018-02-04T06:17:02.582Z,8.33
2018-02-04T06:19:30.251Z,7.77
2018-02-04T06:21:57.967Z,7.80
2018-02-04T06:24:25.570Z,7.43
2018-02-04T06:26:53.186Z,5.40
2018-02-04T06:29:20.826Z,7.70
2018-02-04T06:31:48.508Z,7.17
2018-02-04T06:34:16.158Z,10.00
2018-02-04T06:36:43.789Z,12.10
2018-02-04T06:39:11.348Z,13.20
2018-02-04T06:41:38.922Z,12.33
2018-02-04T06:44:06.550Z,11.67
2018-02-04T06:46:34.179Z,11.43
2018-02-04T06:49:01.735Z,9.60
2018-02-04T06:51:29.335Z,7.67
2018-02-04T06:53:56.889Z,9.13
2018-02-04T06:56:24.442Z,8.27
2018-02-04T06:58:52.062Z,9.20
2018-02-04T07:01:19.665Z,8.40
2018-02-04T07:03:47.343Z,6.13
2018-02-04T07:06:14.938Z,7.20
2018-02-04T07:08:42.497Z,7.07
2018-02-04T07:11:10.131Z,9.10
2018-02-04T07:13:37.743Z,9.40
2018-02-04T07:16:05.310Z,7.73
2018-02-04T07:18:32.870Z,6.33
2018-02-04T07:21:00.485Z,6.27
2018-02-04T07:23:28.111Z,9.40
2018-02-04T07:25:55.666Z,10.63
2018-02-04T07:28:23.240Z,6.40
2018-02-04T07:30:50.810Z,8.63
2018-02-04T07:33:18.391Z,9.33
2018-02-04T07:35:46.036Z,9.27
2018-02-04T07:38:13.657Z,7.10
2018-02-04T07:40:41.228Z,9.70
2018-02-04T07:43:08.852Z,12.20
2018-02-04T07:45:36.522Z,11.37
2018-02-04T07:48:04.088Z,9.90
2018-02-04T07:50:31.682Z,11.40
2018-02-04T07:52:59.249Z,13.07
2018-02-04T07:55:26.828Z,11.20
2018-02-04T07:57:54.437Z,8.80
2018-02-04T08:00:22.058Z,10.23
2018-02-04T08:02:49.665Z,10.53
2018-02-04T08:05:17.217Z,9.83
2018-02-04T08:07:44.788Z,8.27
2018-02-04T08:10:12.411Z,10.77
2018-02-04T08:12:40.013Z,12.93
2018-02-04T08:15:07.649Z,11.90
2018-02-04T08:17:35.225Z,11.63
2018-02-04T08:20:02.886Z,9.67
2018-02-04T08:22:30.448Z,13.40
2018-02-04T08:24:58.076Z,11.00
2018-02-04T08:27:25.705Z,12.60
2018-02-04T08:29:53.316Z,13.80
2018-02-04T08:32:20.950Z,17.33
2018-02-04T08:34:48.508Z,15.50
2018-02-04T08:37:16.190Z,9.37
2018-02-04T08:39:43.745Z,9.33
2018-02-04T08:42:11.306Z,7.90
2018-02-04T08:44:38.874Z,8.60
2018-02-04T08:47:07.445Z,8.63
2018-02-04T08:49:35.646Z,9.60
2018-02-04T08:52:03.301Z,10.50
2018-02-04T08:54:31.027Z,13.90
2018-02-04T08:56:58.591Z,14.70
2018-02-04T08:59:26.150Z,15.10
2018-02-04T09:01:53.736Z,15.40
2018-02-04T09:04:21.307Z,14.23
2018-02-04T09:06:48.883Z,12.13
2018-02-04T09:09:16.498Z,11.43
2018-02-04T09:11:44.166Z,8.77
2018-02-04T09:14:11.734Z,10.07
2018-02-04T09:16:39.292Z,11.10
2018-02-04T09:19:06.916Z,12.93
2018-02-04T09:21:34.471Z,11.07
2018-02-04T09:24:02.113Z,15.00
2018-02-04T09:26:29.678Z,12.17
2018-02-04T09:28:57.297Z,12.80
2018-02-04T09:31:24.861Z,11.87
2018-02-04T09:33:52.483Z,11.50
2018-02-04T09:36:20.151Z,11.93
2018-02-04T09:38:47.710Z,9.90
2018-02-04T09:41:15.284Z,9.63
2018-02-04T09:43:42.911Z,9.20
2018-02-04T09:46:10.522Z,5.30
2018-02-04T09:48:38.143Z,5.30
2018-02-04T09:51:05.694Z,4.53
2018-02-04T09:53:33.262Z,7.03
2018-02-04T09:56:00.813Z,9.03
2018-02-04T09:58:28.382Z,9.30
2018-02-04T10:00:55.954Z,8.20
2018-02-04T10:03:23.539Z,14.23
2018-02-04T10:05:51.093Z,10.63
2018-02-04T10:08:18.645Z,6.00
2018-02-04T10:10:46.225Z,10.40
2018-02-04T10:13:13.851Z,6.83
2018-02-04T10:15:41.464Z,8.00
2018-02-04T10:18:09.023Z,6.20
2018-02-04T10:20:36.700Z,9.77
2018-02-04T10:23:04.327Z,11.07
2018-02-04T10:25:31.885Z,9.40
2018-02-04T10:27:59.493Z,9.27
2018-02-04T10:30:27.110Z,10.00
2018-02-04T10:32:54.744Z,10.27
2018-02-04T10:35:22.401Z,12.40
2018-02-04T10:37:50.087Z,10.60
2018-02-04T10:40:17.653Z,13.30
2018-02-04T10:42:45.249Z,15.00
2018-02-04T10:45:12.882Z,9.70
2018-02-04T10:47:40.503Z,10.27
2018-02-04T10:50:08.149Z,11.03
2018-02-04T10:52:35.774Z,8.47
2018-02-04T10:55:03.446Z,11.30
2018-02-04T10:57:31.066Z,12.07
2018-02-04T10:59:58.631Z,14.57
2018-02-04T11:02:26.204Z,10.80
2018-02-04T11:04:53.769Z,8.50
2018-02-04T11:07:21.330Z,10.40
2018-02-04T11:09:48.904Z,12.07
2018-02-04T11:12:16.547Z,9.80
2018-02-04T11:14:44.403Z,6.57
2018-02-04T11:17:11.987Z,10.00
2018-02-04T11:19:39.554Z,6.60
2018-02-04T11:22:07.106Z,6.97
2018-02-04T11:24:34.732Z,8.93
2018-02-04T11:27:02.290Z,11.30
2018-02-04T11:29:29.940Z,14.67
2018-02-04T11:31:57.588Z,15.73
2018-02-04T11:34:25.155Z,16.90
2018-02-04T11:36:52.739Z,19.90
2018-02-04T11:39:20.317Z,15.47
2018-02-04T11:41:47.892Z,19.03
2018-02-04T11:44:15.521Z,12.40
2018-02-04T11:46:43.205Z,12.13
2018-02-04T11:49:10.782Z,17.00
2018-02-04T11:51:38.379Z,16.23
2018-02-04T11:54:06.047Z,17.60
2018-02-04T11:56:33.650Z,18.10
2018-02-04T11:59:01.957Z,22.60
2018-02-04T12:01:29.588Z,40.47
2018-02-04T12:03:58.108Z,41.37
2018-02-04T12:06:26.559Z,34.37
2018-02-04T12:08:54.180Z,21.80
2018-02-04T12:11:21.749Z,12.90
2018-02-04T12:13:49.379Z,15.07
2018-02-04T12:16:17.014Z,16.10
2018-02-04T12:18:44.559Z,18.73
2018-02-04T12:21:12.134Z,22.50
2018-02-04T12:23:39.773Z,16.80
2018-02-04T12:26:07.334Z,25.53
2018-02-04T12:28:34.945Z,27.07
2018-02-04T12:31:02.521Z,22.93
2018-02-04T12:33:30.147Z,23.13
2018-02-04T12:35:57.714Z,23.97
2018-02-04T12:38:25.274Z,23.90
2018-02-04T12:40:52.907Z,11.70
2018-02-04T12:43:20.477Z,9.10
2018-02-04T12:45:48.211Z,5.73
2018-02-04T12:48:15.796Z,21.30
2018-02-04T12:50:43.417Z,15.40
2018-02-04T12:53:10.994Z,37.50
2018-02-04T12:55:38.560Z,21.33
2018-02-04T12:58:06.201Z,23.17
2018-02-04T13:00:33.829Z,19.57
2018-02-04T13:03:01.477Z,32.07
2018-02-04T13:05:29.045Z,27.07
2018-02-04T13:07:56.606Z,38.80
2018-02-04T13:10:24.192Z,55.03
2018-02-04T13:12:51.753Z,27.40
2018-02-04T13:15:19.334Z,20.07
2018-02-04T13:17:46.899Z,31.50
2018-02-04T13:20:14.578Z,18.30
2018-02-04T13:22:42.140Z,16.50
2018-02-04T13:25:09.710Z,16.33
2018-02-04T13:27:37.280Z,12.97
2018-02-04T13:30:04.853Z,10.30
2018-02-04T13:32:32.478Z,15.07
2018-02-04T13:35:00.040Z,15.90
2018-02-04T13:37:27.683Z,15.03
2018-02-04T13:39:55.257Z,18.83
2018-02-04T13:42:22.840Z,16.90
2018-02-04T13:44:50.468Z,18.50
2018-02-04T13:47:18.085Z,18.53
2018-02-04T13:49:45.700Z,22.23
2018-02-04T13:52:13.287Z,20.07
2018-02-04T13:54:40.852Z,25.07
2018-02-04T13:57:08.494Z,19.87
2018-02-04T13:59:36.123Z,21.10
2018-02-04T14:02:03.692Z,26.37
2018-02-04T14:04:31.257Z,25.13
2018-02-04T14:06:58.906Z,24.97
2018-02-04T14:09:26.523Z,29.17
2018-02-04T14:11:54.090Z,31.70
2018-02-04T14:14:21.650Z,34.10
2018-02-04T14:16:49.253Z,30.00
2018-02-04T14:19:16.880Z,29.47
2018-02-04T14:21:44.518Z,39.50
2018-02-04T14:24:12.127Z,37.90
2018-02-04T14:26:39.698Z,27.50
2018-02-04T14:29:07.262Z,29.20
2018-02-04T14:31:34.844Z,19.30
2018-02-04T14:34:02.441Z,31.50
2018-02-04T14:36:30.072Z,18.40
2018-02-04T14:38:57.644Z,15.67
2018-02-04T14:41:25.272Z,13.37
2018-02-04T14:43:53.886Z,14.37
2018-02-04T14:46:21.559Z,19.47
2018-02-04T14:48:49.192Z,16.90
2018-02-04T14:51:16.750Z,16.30
2018-02-04T14:53:44.352Z,18.70
2018-02-04T14:56:11.979Z,17.80
2018-02-04T14:58:39.554Z,18.30
2018-02-04T15:01:07.125Z,19.27
2018-02-04T15:03:34.843Z,19.23
2018-02-04T15:06:02.440Z,23.27
2018-02-04T15:08:30.000Z,25.67
2018-02-04T15:10:57.666Z,23.53
2018-02-04T15:13:25.290Z,23.60
2018-02-04T15:15:52.911Z,21.13
2018-02-04T15:18:20.641Z,25.90
2018-02-04T15:20:48.433Z,24.53
2018-02-04T15:23:16.081Z,18.80
2018-02-04T15:25:44.661Z,18.77
2018-02-04T15:28:12.382Z,17.30
2018-02-04T15:30:40.114Z,15.10
2018-02-04T15:33:07.854Z,14.83
2018-02-04T15:35:35.540Z,15.93
2018-02-04T15:38:03.176Z,16.63
2018-02-04T15:40:30.798Z,17.77
2018-02-04T15:42:59.413Z,19.20
2018-02-04T15:45:27.819Z,21.47
2018-02-04T15:47:56.107Z,20.50
2018-02-04T15:50:23.685Z,23.20
2018-02-04T15:52:51.263Z,21.17
2018-02-04T15:55:18.908Z,24.43
2018-02-04T15:57:46.651Z,25.20
2018-02-04T16:00:14.273Z,33.00
2018-02-04T16:02:41.906Z,72.97
2018-02-04T16:05:09.546Z,30.07
2018-02-04T16:07:37.170Z,31.13
2018-02-04T16:10:04.752Z,23.60
2018-02-04T16:12:32.439Z,29.37
2018-02-04T16:15:00.148Z,32.83
2018-02-04T16:17:27.828Z,35.07
2018-02-04T16:19:55.458Z,38.57
2018-02-04T16:22:23.056Z,30.83
2018-02-04T16:24:50.710Z,21.23
2018-02-04T16:27:18.285Z,22.50
2018-02-04T16:29:45.937Z,17.23
2018-02-04T16:32:13.491Z,18.30
2018-02-04T16:34:41.066Z,19.67
2018-02-04T16:37:08.664Z,16.13
2018-02-04T16:39:36.225Z,20.60
2018-02-04T16:42:03.802Z,19.70
2018-02-04T16:44:31.380Z,20.03
2018-02-04T16:46:59.170Z,19.37
2018-02-04T16:49:26.790Z,18.87
2018-02-04T16:51:54.354Z,25.03
2018-02-04T16:54:22.004Z,19.33
2018-02-04T16:56:49.631Z,29.70
2018-02-04T16:59:17.216Z,27.90
2018-02-04T17:01:44.882Z,25.90
2018-02-04T17:04:12.521Z,17.43
2018-02-04T17:06:40.096Z,19.30
2018-02-04T17:09:07.755Z,29.23
2018-02-04T17:11:35.332Z,25.37
2018-02-04T17:14:02.966Z,15.80
2018-02-04T17:16:30.548Z,23.70
2018-02-04T17:18:58.174Z,15.50
2018-02-04T17:21:25.868Z,17.60
2018-02-04T17:23:53.436Z,16.00
2018-02-04T17:26:21.006Z,16.60
2018-02-04T17:28:48.586Z,15.83
2018-02-04T17:31:16.191Z,20.13
2018-02-04T17:33:43.829Z,17.60
2018-02-04T17:36:11.407Z,16.33
2018-02-04T17:38:39.023Z,18.63
2018-02-04T17:41:06.676Z,21.60
2018-02-04T17:43:34.247Z,17.10
2018-02-04T17:46:01.823Z,24.30
2018-02-04T17:48:29.474Z,22.60
2018-02-04T17:50:57.103Z,18.43
2018-02-04T17:53:24.715Z,16.63
2018-02-04T17:55:52.382Z,18.33
2018-02-04T17:58:20.010Z,17.37
2018-02-04T18:00:47.586Z,17.90
2018-02-04T18:03:15.159Z,19.63
2018-02-04T18:05:42.730Z,19.67
2018-02-04T18:08:10.365Z,21.20
2018-02-04T18:10:37.986Z,19.27
2018-02-04T18:13:05.610Z,21.50
2018-02-04T18:15:33.188Z,20.27
2018-02-04T18:18:01.547Z,18.37
2018-02-04T18:20:29.123Z,24.60
2018-02-04T18:22:56.743Z,29.90
2018-02-04T18:25:24.322Z,26.00
2018-02-04T18:27:51.910Z,23.50
2018-02-04T18:30:19.698Z,23.40
2018-02-04T18:32:47.272Z,24.53
2018-02-04T18:35:14.841Z,25.60
2018-02-04T18:37:42.427Z,21.67
2018-02-04T18:40:10.043Z,22.10
2018-02-04T18:42:37.610Z,20.87
2018-02-04T18:45:05.250Z,22.70
2018-02-04T18:47:32.890Z,21.93
2018-02-04T18:50:00.583Z,27.27
2018-02-04T18:52:28.242Z,25.50
2018-02-04T18:54:55.851Z,26.30
2018-02-04T18:57:23.472Z,21.87
2018-02-04T18:59:51.156Z,22.00
2018-02-04T19:02:18.734Z,21.27
2018-02-04T19:04:46.559Z,18.80
2018-02-04T19:07:15.320Z,14.00
2018-02-04T19:09:42.929Z,18.77
2018-02-04T19:12:10.599Z,17.67
2018-02-04T19:14:38.357Z,15.20
2018-02-04T19:17:05.975Z,17.10
2018-02-04T19:19:33.535Z,17.97
2018-02-04T19:22:01.743Z,16.30
2018-02-04T19:24:29.628Z,17.77
2018-02-04T19:26:57.447Z,18.40
2018-02-04T19:29:25.078Z,19.10
2018-02-04T19:31:52.682Z,17.60
2018-02-04T19:34:20.323Z,18.40
2018-02-04T19:36:47.925Z,19.40
2018-02-04T19:39:15.510Z,19.77
2018-02-04T19:41:43.219Z,19.03
2018-02-04T19:44:10.833Z,19.97
2018-02-04T19:46:38.499Z,19.63
2018-02-04T19:49:06.097Z,16.97
2018-02-04T19:51:33.783Z,15.73
2018-02-04T19:54:01.353Z,18.70
2018-02-04T19:56:29.444Z,14.53
2018-02-04T19:58:57.094Z,17.63
2018-02-04T20:01:24.673Z,17.80
2018-02-04T20:03:52.376Z,18.67
2018-02-04T20:06:19.960Z,21.07
2018-02-04T20:08:47.530Z,20.60
2018-02-04T20:11:16.090Z,19.80
2018-02-04T20:13:43.692Z,17.53
2018-02-04T20:16:11.289Z,19.77
2018-02-04T20:18:38.862Z,18.20
2018-02-04T20:21:06.578Z,19.20
2018-02-04T20:23:34.202Z,18.93
2018-02-04T20:26:01.779Z,19.47
2018-02-04T20:28:29.343Z,21.33
2018-02-04T20:30:57.015Z,19.50
2018-02-04T20:33:25.626Z,19.80
2018-02-04T20:35:53.194Z,18.97
2018-02-04T20:38:21.171Z,21.07
2018-02-04T20:40:49.160Z,19.40
2018-02-04T20:43:16.743Z,20.33
2018-02-04T20:45:44.342Z,21.63
2018-02-04T20:48:11.956Z,22.80
2018-02-04T20:50:39.582Z,25.00
2018-02-04T20:53:07.239Z,25.53
2018-02-04T20:55:34.848Z,26.57
2018-02-04T20:58:02.426Z,28.53
2018-02-04T21:00:30.009Z,30.60
2018-02-04T21:02:57.597Z,29.07
2018-02-04T21:05:25.146Z,31.40
2018-02-04T21:07:52.939Z,21.90
2018-02-04T21:10:20.574Z,20.80
2018-02-04T21:12:48.241Z,18.20
2018-02-04T21:15:15.900Z,17.73
2018-02-04T21:17:43.531Z,19.33
2018-02-04T21:20:11.190Z,16.87
2018-02-04T21:22:39.084Z,17.77
2018-02-04T21:25:06.763Z,18.00
2018-02-04T21:27:34.334Z,16.20
2018-02-04T21:30:01.964Z,13.43
2018-02-04T21:32:29.555Z,16.83
2018-02-04T21:34:57.191Z,17.70
2018-02-04T21:37:24.811Z,16.93
2018-02-04T21:39:52.378Z,16.63
2018-02-04T21:42:19.999Z,18.00
2018-02-04T21:44:47.742Z,16.70
2018-02-04T21:47:15.362Z,20.60
2018-02-04T21:49:42.952Z,22.73
2018-02-04T21:52:10.528Z,20.50
2018-02-04T21:54:38.108Z,27.33
2018-02-04T21:57:06.015Z,25.50
2018-02-04T21:59:33.821Z,21.93
2018-02-04T22:02:01.459Z,23.47
2018-02-04T22:04:29.035Z,27.73
2018-02-04T22:06:56.667Z,19.47
2018-02-04T22:09:24.297Z,28.33
2018-02-04T22:11:51.935Z,25.00
2018-02-04T22:14:19.604Z,36.20
2018-02-04T22:16:47.241Z,49.43
2018-02-04T22:19:14.806Z,27.10
2018-02-04T22:21:42.443Z,27.20
2018-02-04T22:24:10.099Z,36.37
2018-02-04T22:26:37.737Z,31.10
2018-02-04T22:29:05.317Z,21.63
2018-02-04T22:31:32.901Z,20.77
2018-02-04T22:34:00.588Z,20.80
2018-02-04T22:36:28.215Z,18.23
2018-02-04T22:38:55.790Z,15.73
2018-02-04T22:41:23.362Z,15.60
2018-02-04T22:43:50.989Z,14.40
2018-02-04T22:46:18.618Z,13.77
2018-02-04T22:48:46.191Z,15.40
2018-02-04T22:51:13.839Z,18.43
2018-02-04T22:53:41.482Z,15.03
2018-02-04T22:56:09.033Z,15.17
2018-02-04T22:58:36.606Z,16.93
2018-02-04T23:01:04.175Z,15.77
2018-02-04T23:03:31.758Z,17.40
2018-02-04T23:05:59.322Z,19.20
2018-02-04T23:08:26.937Z,15.67
2018-02-04T23:10:54.515Z,14.30
2018-02-04T23:13:22.142Z,17.37
2018-02-04T23:15:49.714Z,15.67
2018-02-04T23:18:17.315Z,23.50
2018-02-04T23:20:44.930Z,16.10
2018-02-04T23:23:12.581Z,20.80
2018-02-04T23:25:40.209Z,16.80
2018-02-04T23:28:07.842Z,14.30
2018-02-04T23:30:35.466Z,14.00
2018-02-04T23:33:03.046Z,13.70
2018-02-04T23:35:30.610Z,17.70
2018-02-04T23:37:58.186Z,16.03
2018-02-04T23:40:25.734Z,17.60
2018-02-04T23:42:53.324Z,16.20
2018-02-04T23:45:20.948Z,16.47
2018-02-04T23:47:48.585Z,18.13
2018-02-04T23:50:16.162Z,16.97
2018-02-04T23:52:43.730Z,19.73
2018-02-04T23:55:11.341Z,20.03
2018-02-04T23:57:38.965Z,16.77
